sensor_id;sensor_type;location;lat;lon;timestamp;P1;durP1;ratioP1;P2;durP2;ratioP2
15831;SDS011;8016;49.928;9.372;2023-06-22T00:00:03;15.47;;;8.87;;
15831;SDS011;8016;49.928;9.372;2023-06-22T00:02:35;10.60;;;9.43;;
15831;SDS011;8016;49.928;9.372;2023-06-22T00:05:01;11.37;;;10.27;;
15831;SDS011;8016;49.928;9.372;2023-06-22T00:07:27;11.20;;;10.00;;
15831;SDS011;8016;49.928;9.372;2023-06-22T00:09:53;10.70;;;9.70;;
15831;SDS011;8016;49.928;9.372;2023-06-22T00:12:19;11.40;;;10.03;;
15831;SDS011;8016;49.928;9.372;2023-06-22T00:14:45;10.60;;;9.50;;
15831;SDS011;8016;49.928;9.372;2023-06-22T00:17:11;10.70;;;9.70;;
15831;SDS011;8016;49.928;9.372;2023-06-22T00:19:37;10.93;;;9.83;;
15831;SDS011;8016;49.928;9.372;2023-06-22T00:22:05;10.60;;;9.60;;
15831;SDS011;8016;49.928;9.372;2023-06-22T00:24:31;10.07;;;9.07;;
15831;SDS011;8016;49.928;9.372;2023-06-22T00:26:57;12.73;;;9.83;;
15831;SDS011;8016;49.928;9.372;2023-06-22T00:29:23;10.60;;;9.60;;
15831;SDS011;8016;49.928;9.372;2023-06-22T00:31:49;10.87;;;9.77;;
15831;SDS011;8016;49.928;9.372;2023-06-22T00:34:15;11.30;;;10.23;;
15831;SDS011;8016;49.928;9.372;2023-06-22T00:36:41;10.47;;;9.57;;
15831;SDS011;8016;49.928;9.372;2023-06-22T00:39:07;12.97;;;9.50;;
15831;SDS011;8016;49.928;9.372;2023-06-22T00:41:33;12.93;;;10.00;;
15831;SDS011;8016;49.928;9.372;2023-06-22T00:43:59;12.33;;;10.20;;
15831;SDS011;8016;49.928;9.372;2023-06-22T00:46:25;11.37;;;9.87;;
15831;SDS011;8016;49.928;9.372;2023-06-22T00:48:51;11.47;;;10.47;;
15831;SDS011;8016;49.928;9.372;2023-06-22T00:51:17;12.20;;;10.87;;
15831;SDS011;8016;49.928;9.372;2023-06-22T00:53:49;10.80;;;9.80;;
15831;SDS011;8016;49.928;9.372;2023-06-22T00:56:16;10.53;;;9.47;;
15831;SDS011;8016;49.928;9.372;2023-06-22T00:58:44;11.53;;;9.57;;
15831;SDS011;8016;49.928;9.372;2023-06-22T01:01:12;12.23;;;10.10;;
15831;SDS011;8016;49.928;9.372;2023-06-22T01:03:39;10.43;;;9.43;;
15831;SDS011;8016;49.928;9.372;2023-06-22T01:06:07;12.73;;;10.03;;
15831;SDS011;8016;49.928;9.372;2023-06-22T01:08:48;10.70;;;9.67;;
15831;SDS011;8016;49.928;9.372;2023-06-22T01:11:20;11.23;;;9.97;;
15831;SDS011;8016;49.928;9.372;2023-06-22T01:13:52;10.87;;;9.97;;
15831;SDS011;8016;49.928;9.372;2023-06-22T01:16:31;10.37;;;9.27;;
15831;SDS011;8016;49.928;9.372;2023-06-22T01:19:00;9.77;;;8.87;;
15831;SDS011;8016;49.928;9.372;2023-06-22T01:21:28;13.43;;;9.30;;
15831;SDS011;8016;49.928;9.372;2023-06-22T01:26:42;9.47;;;8.57;;
15831;SDS011;8016;49.928;9.372;2023-06-22T01:29:08;9.80;;;8.60;;
15831;SDS011;8016;49.928;9.372;2023-06-22T01:31:37;10.30;;;8.37;;
15831;SDS011;8016;49.928;9.372;2023-06-22T01:34:05;12.23;;;9.93;;
15831;SDS011;8016;49.928;9.372;2023-06-22T01:36:32;10.07;;;9.07;;
15831;SDS011;8016;49.928;9.372;2023-06-22T01:38:58;12.37;;;9.80;;
15831;SDS011;8016;49.928;9.372;2023-06-22T01:41:25;10.47;;;9.60;;
15831;SDS011;8016;49.928;9.372;2023-06-22T01:43:52;9.60;;;8.70;;
15831;SDS011;8016;49.928;9.372;2023-06-22T01:46:18;10.53;;;9.53;;
15831;SDS011;8016;49.928;9.372;2023-06-22T01:48:45;9.83;;;9.03;;
15831;SDS011;8016;49.928;9.372;2023-06-22T01:51:11;10.37;;;9.37;;
15831;SDS011;8016;49.928;9.372;2023-06-22T01:53:37;9.47;;;7.93;;
15831;SDS011;8016;49.928;9.372;2023-06-22T01:56:03;11.63;;;9.10;;
15831;SDS011;8016;49.928;9.372;2023-06-22T01:58:29;10.40;;;9.50;;
15831;SDS011;8016;49.928;9.372;2023-06-22T02:00:57;10.13;;;9.10;;
15831;SDS011;8016;49.928;9.372;2023-06-22T02:03:30;10.37;;;9.33;;
15831;SDS011;8016;49.928;9.372;2023-06-22T02:05:58;10.60;;;9.60;;
15831;SDS011;8016;49.928;9.372;2023-06-22T02:08:28;10.93;;;9.83;;
15831;SDS011;8016;49.928;9.372;2023-06-22T02:10:55;11.17;;;10.03;;
15831;SDS011;8016;49.928;9.372;2023-06-22T02:13:23;12.87;;;11.07;;
15831;SDS011;8016;49.928;9.372;2023-06-22T02:15:49;11.17;;;10.03;;
15831;SDS011;8016;49.928;9.372;2023-06-22T02:18:16;12.50;;;10.80;;
15831;SDS011;8016;49.928;9.372;2023-06-22T02:20:42;12.93;;;11.53;;
15831;SDS011;8016;49.928;9.372;2023-06-22T02:23:08;11.13;;;10.17;;
15831;SDS011;8016;49.928;9.372;2023-06-22T02:25:34;12.27;;;11.27;;
15831;SDS011;8016;49.928;9.372;2023-06-22T02:28:01;11.93;;;10.93;;
15831;SDS011;8016;49.928;9.372;2023-06-22T02:30:27;11.27;;;10.20;;
15831;SDS011;8016;49.928;9.372;2023-06-22T02:32:53;12.40;;;11.20;;
15831;SDS011;8016;49.928;9.372;2023-06-22T02:35:24;12.33;;;11.03;;
15831;SDS011;8016;49.928;9.372;2023-06-22T02:37:50;12.63;;;11.50;;
15831;SDS011;8016;49.928;9.372;2023-06-22T02:40:16;14.83;;;12.17;;
15831;SDS011;8016;49.928;9.372;2023-06-22T02:42:42;13.13;;;11.90;;
15831;SDS011;8016;49.928;9.372;2023-06-22T02:45:08;12.57;;;11.53;;
15831;SDS011;8016;49.928;9.372;2023-06-22T02:47:34;12.83;;;11.70;;
15831;SDS011;8016;49.928;9.372;2023-06-22T02:50:00;12.30;;;11.20;;
15831;SDS011;8016;49.928;9.372;2023-06-22T02:52:26;14.67;;;13.27;;
15831;SDS011;8016;49.928;9.372;2023-06-22T02:54:52;13.50;;;12.20;;
15831;SDS011;8016;49.928;9.372;2023-06-22T02:57:18;13.27;;;11.97;;
15831;SDS011;8016;49.928;9.372;2023-06-22T02:59:44;14.33;;;12.93;;
15831;SDS011;8016;49.928;9.372;2023-06-22T03:02:10;14.20;;;12.87;;
15831;SDS011;8016;49.928;9.372;2023-06-22T03:04:36;13.33;;;12.13;;
15831;SDS011;8016;49.928;9.372;2023-06-22T03:07:02;14.93;;;12.07;;
15831;SDS011;8016;49.928;9.372;2023-06-22T03:09:28;14.50;;;12.57;;
15831;SDS011;8016;49.928;9.372;2023-06-22T03:11:54;14.67;;;12.23;;
15831;SDS011;8016;49.928;9.372;2023-06-22T03:14:20;13.60;;;12.30;;
15831;SDS011;8016;49.928;9.372;2023-06-22T03:16:46;13.37;;;12.13;;
15831;SDS011;8016;49.928;9.372;2023-06-22T03:19:12;12.70;;;11.70;;
15831;SDS011;8016;49.928;9.372;2023-06-22T03:21:39;16.87;;;13.73;;
15831;SDS011;8016;49.928;9.372;2023-06-22T03:24:05;14.00;;;12.70;;
15831;SDS011;8016;49.928;9.372;2023-06-22T03:26:32;13.93;;;12.47;;
15831;SDS011;8016;49.928;9.372;2023-06-22T03:28:58;13.53;;;12.33;;
15831;SDS011;8016;49.928;9.372;2023-06-22T03:31:23;15.23;;;14.03;;
15831;SDS011;8016;49.928;9.372;2023-06-22T03:33:50;14.27;;;12.87;;
15831;SDS011;8016;49.928;9.372;2023-06-22T03:36:19;14.90;;;13.37;;
15831;SDS011;8016;49.928;9.372;2023-06-22T03:38:45;15.10;;;13.67;;
15831;SDS011;8016;49.928;9.372;2023-06-22T03:41:11;15.37;;;13.97;;
15831;SDS011;8016;49.928;9.372;2023-06-22T03:43:37;18.40;;;14.57;;
15831;SDS011;8016;49.928;9.372;2023-06-22T03:46:03;15.50;;;14.10;;
15831;SDS011;8016;49.928;9.372;2023-06-22T03:48:29;15.73;;;14.20;;
15831;SDS011;8016;49.928;9.372;2023-06-22T03:50:55;15.63;;;14.33;;
15831;SDS011;8016;49.928;9.372;2023-06-22T03:53:21;15.90;;;14.60;;
15831;SDS011;8016;49.928;9.372;2023-06-22T03:55:48;15.37;;;14.00;;
15831;SDS011;8016;49.928;9.372;2023-06-22T03:58:15;16.67;;;15.00;;
15831;SDS011;8016;49.928;9.372;2023-06-22T04:00:40;16.03;;;14.20;;
15831;SDS011;8016;49.928;9.372;2023-06-22T04:03:06;17.00;;;15.50;;
15831;SDS011;8016;49.928;9.372;2023-06-22T04:05:33;15.77;;;14.20;;
15831;SDS011;8016;49.928;9.372;2023-06-22T04:07:59;15.87;;;14.43;;
15831;SDS011;8016;49.928;9.372;2023-06-22T04:10:24;15.40;;;13.90;;
15831;SDS011;8016;49.928;9.372;2023-06-22T04:12:50;15.30;;;13.97;;
15831;SDS011;8016;49.928;9.372;2023-06-22T04:15:17;27.20;;;14.23;;
15831;SDS011;8016;49.928;9.372;2023-06-22T04:17:43;22.87;;;14.17;;
15831;SDS011;8016;49.928;9.372;2023-06-22T04:20:09;14.43;;;13.10;;
15831;SDS011;8016;49.928;9.372;2023-06-22T04:22:35;14.27;;;13.07;;
15831;SDS011;8016;49.928;9.372;2023-06-22T04:25:01;14.17;;;12.87;;
15831;SDS011;8016;49.928;9.372;2023-06-22T04:27:27;14.13;;;12.83;;
15831;SDS011;8016;49.928;9.372;2023-06-22T04:29:53;14.07;;;12.87;;
15831;SDS011;8016;49.928;9.372;2023-06-22T04:32:18;14.47;;;13.27;;
15831;SDS011;8016;49.928;9.372;2023-06-22T04:34:44;14.20;;;12.80;;
15831;SDS011;8016;49.928;9.372;2023-06-22T04:37:10;13.20;;;12.00;;
15831;SDS011;8016;49.928;9.372;2023-06-22T04:39:40;13.57;;;12.17;;
15831;SDS011;8016;49.928;9.372;2023-06-22T04:42:06;12.90;;;11.77;;
15831;SDS011;8016;49.928;9.372;2023-06-22T04:44:32;12.67;;;11.40;;
15831;SDS011;8016;49.928;9.372;2023-06-22T04:46:58;11.20;;;10.30;;
15831;SDS011;8016;49.928;9.372;2023-06-22T04:49:25;10.43;;;9.53;;
15831;SDS011;8016;49.928;9.372;2023-06-22T04:51:57;9.57;;;8.77;;
15831;SDS011;8016;49.928;9.372;2023-06-22T04:54:24;9.23;;;8.43;;
15831;SDS011;8016;49.928;9.372;2023-06-22T04:56:50;9.20;;;8.50;;
15831;SDS011;8016;49.928;9.372;2023-06-22T04:59:21;9.97;;;8.97;;
15831;SDS011;8016;49.928;9.372;2023-06-22T05:01:47;8.77;;;8.00;;
15831;SDS011;8016;49.928;9.372;2023-06-22T05:04:13;8.63;;;7.87;;
15831;SDS011;8016;49.928;9.372;2023-06-22T05:06:39;9.43;;;8.63;;
15831;SDS011;8016;49.928;9.372;2023-06-22T05:09:05;8.37;;;7.67;;
15831;SDS011;8016;49.928;9.372;2023-06-22T05:11:31;8.70;;;7.97;;
15831;SDS011;8016;49.928;9.372;2023-06-22T05:13:57;10.30;;;8.80;;
15831;SDS011;8016;49.928;9.372;2023-06-22T05:16:23;9.77;;;8.77;;
15831;SDS011;8016;49.928;9.372;2023-06-22T05:18:53;8.97;;;8.20;;
15831;SDS011;8016;49.928;9.372;2023-06-22T05:21:23;9.30;;;8.50;;
15831;SDS011;8016;49.928;9.372;2023-06-22T05:23:49;10.57;;;8.73;;
15831;SDS011;8016;49.928;9.372;2023-06-22T05:26:15;9.80;;;8.90;;
15831;SDS011;8016;49.928;9.372;2023-06-22T05:28:41;9.93;;;9.03;;
15831;SDS011;8016;49.928;9.372;2023-06-22T05:31:10;10.33;;;9.33;;
15831;SDS011;8016;49.928;9.372;2023-06-22T05:33:36;10.27;;;9.03;;
15831;SDS011;8016;49.928;9.372;2023-06-22T05:36:02;9.43;;;8.53;;
15831;SDS011;8016;49.928;9.372;2023-06-22T05:38:28;11.87;;;8.83;;
15831;SDS011;8016;49.928;9.372;2023-06-22T05:40:54;10.00;;;9.20;;
15831;SDS011;8016;49.928;9.372;2023-06-22T05:43:20;9.97;;;8.97;;
15831;SDS011;8016;49.928;9.372;2023-06-22T05:45:46;10.77;;;9.30;;
15831;SDS011;8016;49.928;9.372;2023-06-22T05:48:12;9.67;;;8.63;;
15831;SDS011;8016;49.928;9.372;2023-06-22T05:50:38;9.10;;;8.23;;
15831;SDS011;8016;49.928;9.372;2023-06-22T05:53:04;10.20;;;9.20;;
15831;SDS011;8016;49.928;9.372;2023-06-22T05:55:32;8.83;;;8.10;;
15831;SDS011;8016;49.928;9.372;2023-06-22T05:57:58;9.05;;;8.25;;
15831;SDS011;8016;49.928;9.372;2023-06-22T06:00:24;8.93;;;8.20;;
15831;SDS011;8016;49.928;9.372;2023-06-22T06:02:50;15.40;;;10.13;;
15831;SDS011;8016;49.928;9.372;2023-06-22T06:05:16;9.60;;;8.60;;
15831;SDS011;8016;49.928;9.372;2023-06-22T06:07:43;9.87;;;8.93;;
15831;SDS011;8016;49.928;9.372;2023-06-22T06:10:09;8.93;;;8.20;;
15831;SDS011;8016;49.928;9.372;2023-06-22T06:12:35;9.93;;;8.97;;
15831;SDS011;8016;49.928;9.372;2023-06-22T06:15:02;9.53;;;8.53;;
15831;SDS011;8016;49.928;9.372;2023-06-22T06:17:28;9.88;;;8.90;;
15831;SDS011;8016;49.928;9.372;2023-06-22T06:19:54;9.85;;;8.15;;
15831;SDS011;8016;49.928;9.372;2023-06-22T06:22:19;8.95;;;8.15;;
15831;SDS011;8016;49.928;9.372;2023-06-22T06:24:46;8.60;;;7.82;;
15831;SDS011;8016;49.928;9.372;2023-06-22T06:27:12;8.98;;;8.13;;
15831;SDS011;8016;49.928;9.372;2023-06-22T06:29:38;8.87;;;8.07;;
15831;SDS011;8016;49.928;9.372;2023-06-22T06:32:04;9.35;;;8.45;;
15831;SDS011;8016;49.928;9.372;2023-06-22T06:34:31;10.15;;;9.23;;
15831;SDS011;8016;49.928;9.372;2023-06-22T06:36:57;9.43;;;8.02;;
15831;SDS011;8016;49.928;9.372;2023-06-22T06:39:23;9.10;;;8.10;;
15831;SDS011;8016;49.928;9.372;2023-06-22T06:41:49;11.10;;;8.27;;
15831;SDS011;8016;49.928;9.372;2023-06-22T06:44:15;9.52;;;8.20;;
15831;SDS011;8016;49.928;9.372;2023-06-22T06:46:41;9.50;;;8.57;;
15831;SDS011;8016;49.928;9.372;2023-06-22T06:49:07;9.55;;;8.65;;
15831;SDS011;8016;49.928;9.372;2023-06-22T06:51:33;9.20;;;8.30;;
15831;SDS011;8016;49.928;9.372;2023-06-22T06:53:59;9.43;;;8.57;;
15831;SDS011;8016;49.928;9.372;2023-06-22T06:56:25;9.45;;;8.65;;
15831;SDS011;8016;49.928;9.372;2023-06-22T06:58:51;9.07;;;8.32;;
15831;SDS011;8016;49.928;9.372;2023-06-22T07:01:17;9.50;;;8.60;;
15831;SDS011;8016;49.928;9.372;2023-06-22T07:03:44;9.68;;;8.65;;
15831;SDS011;8016;49.928;9.372;2023-06-22T07:06:10;10.32;;;8.68;;
15831;SDS011;8016;49.928;9.372;2023-06-22T07:08:36;8.97;;;8.17;;
15831;SDS011;8016;49.928;9.372;2023-06-22T07:11:04;10.82;;;8.40;;
15831;SDS011;8016;49.928;9.372;2023-06-22T07:13:30;9.73;;;8.93;;
15831;SDS011;8016;49.928;9.372;2023-06-22T07:15:56;9.80;;;8.93;;
15831;SDS011;8016;49.928;9.372;2023-06-22T07:18:23;9.27;;;8.35;;
15831;SDS011;8016;49.928;9.372;2023-06-22T07:20:49;9.30;;;8.52;;
15831;SDS011;8016;49.928;9.372;2023-06-22T07:23:15;9.70;;;8.70;;
15831;SDS011;8016;49.928;9.372;2023-06-22T07:25:41;9.30;;;8.57;;
15831;SDS011;8016;49.928;9.372;2023-06-22T07:28:07;9.25;;;7.95;;
15831;SDS011;8016;49.928;9.372;2023-06-22T07:30:34;9.15;;;8.23;;
15831;SDS011;8016;49.928;9.372;2023-06-22T07:33:00;10.18;;;9.15;;
15831;SDS011;8016;49.928;9.372;2023-06-22T07:35:28;9.63;;;8.63;;
15831;SDS011;8016;49.928;9.372;2023-06-22T07:37:54;9.52;;;8.63;;
15831;SDS011;8016;49.928;9.372;2023-06-22T07:40:20;11.35;;;8.68;;
15831;SDS011;8016;49.928;9.372;2023-06-22T07:42:46;9.23;;;8.43;;
15831;SDS011;8016;49.928;9.372;2023-06-22T07:45:13;9.65;;;8.75;;
15831;SDS011;8016;49.928;9.372;2023-06-22T07:47:39;9.07;;;8.38;;
15831;SDS011;8016;49.928;9.372;2023-06-22T07:50:05;10.20;;;8.68;;
15831;SDS011;8016;49.928;9.372;2023-06-22T07:52:31;8.98;;;7.93;;
15831;SDS011;8016;49.928;9.372;2023-06-22T07:54:58;8.85;;;8.00;;
15831;SDS011;8016;49.928;9.372;2023-06-22T07:57:24;8.95;;;8.05;;
15831;SDS011;8016;49.928;9.372;2023-06-22T07:59:58;9.55;;;8.15;;
15831;SDS011;8016;49.928;9.372;2023-06-22T08:02:24;8.35;;;7.65;;
15831;SDS011;8016;49.928;9.372;2023-06-22T08:04:50;9.82;;;9.02;;
15831;SDS011;8016;49.928;9.372;2023-06-22T08:07:16;9.95;;;8.80;;
15831;SDS011;8016;49.928;9.372;2023-06-22T08:09:46;11.48;;;8.80;;
15831;SDS011;8016;49.928;9.372;2023-06-22T08:12:12;9.10;;;8.30;;
15831;SDS011;8016;49.928;9.372;2023-06-22T08:14:38;9.35;;;8.52;;
15831;SDS011;8016;49.928;9.372;2023-06-22T08:17:04;8.85;;;8.05;;
15831;SDS011;8016;49.928;9.372;2023-06-22T08:19:30;9.23;;;8.35;;
15831;SDS011;8016;49.928;9.372;2023-06-22T08:21:56;9.38;;;8.57;;
15831;SDS011;8016;49.928;9.372;2023-06-22T08:24:22;9.25;;;8.45;;
15831;SDS011;8016;49.928;9.372;2023-06-22T08:26:50;9.60;;;8.70;;
15831;SDS011;8016;49.928;9.372;2023-06-22T08:29:17;10.63;;;9.40;;
15831;SDS011;8016;49.928;9.372;2023-06-22T08:31:43;10.05;;;9.07;;
15831;SDS011;8016;49.928;9.372;2023-06-22T08:34:09;11.13;;;8.65;;
15831;SDS011;8016;49.928;9.372;2023-06-22T08:36:35;9.57;;;8.77;;
15831;SDS011;8016;49.928;9.372;2023-06-22T08:39:02;9.82;;;8.60;;
15831;SDS011;8016;49.928;9.372;2023-06-22T08:41:28;9.93;;;9.07;;
15831;SDS011;8016;49.928;9.372;2023-06-22T08:43:54;9.57;;;8.75;;
15831;SDS011;8016;49.928;9.372;2023-06-22T08:46:20;9.55;;;8.63;;
15831;SDS011;8016;49.928;9.372;2023-06-22T08:48:49;9.65;;;8.75;;
15831;SDS011;8016;49.928;9.372;2023-06-22T08:51:15;9.40;;;8.55;;
15831;SDS011;8016;49.928;9.372;2023-06-22T08:53:42;12.07;;;8.43;;
15831;SDS011;8016;49.928;9.372;2023-06-22T08:56:10;9.02;;;8.05;;
15831;SDS011;8016;49.928;9.372;2023-06-22T08:58:35;12.05;;;8.38;;
15831;SDS011;8016;49.928;9.372;2023-06-22T09:01:01;9.98;;;8.98;;
15831;SDS011;8016;49.928;9.372;2023-06-22T09:03:28;8.55;;;7.70;;
15831;SDS011;8016;49.928;9.372;2023-06-22T09:05:53;9.15;;;8.27;;
15831;SDS011;8016;49.928;9.372;2023-06-22T09:08:20;9.45;;;8.50;;
15831;SDS011;8016;49.928;9.372;2023-06-22T09:10:46;8.75;;;7.85;;
15831;SDS011;8016;49.928;9.372;2023-06-22T09:13:12;9.13;;;8.32;;
15831;SDS011;8016;49.928;9.372;2023-06-22T09:15:38;9.60;;;8.73;;
15831;SDS011;8016;49.928;9.372;2023-06-22T09:18:04;9.63;;;8.75;;
15831;SDS011;8016;49.928;9.372;2023-06-22T09:20:30;9.15;;;8.25;;
15831;SDS011;8016;49.928;9.372;2023-06-22T09:22:56;8.70;;;7.85;;
15831;SDS011;8016;49.928;9.372;2023-06-22T09:25:22;9.10;;;8.02;;
15831;SDS011;8016;49.928;9.372;2023-06-22T09:27:48;8.95;;;8.18;;
15831;SDS011;8016;49.928;9.372;2023-06-22T09:30:14;8.57;;;7.88;;
15831;SDS011;8016;49.928;9.372;2023-06-22T09:32:40;9.18;;;8.30;;
15831;SDS011;8016;49.928;9.372;2023-06-22T09:35:07;8.55;;;7.65;;
15831;SDS011;8016;49.928;9.372;2023-06-22T09:37:34;8.75;;;7.97;;
15831;SDS011;8016;49.928;9.372;2023-06-22T09:40:00;8.73;;;7.93;;
15831;SDS011;8016;49.928;9.372;2023-06-22T09:42:29;9.00;;;8.10;;
15831;SDS011;8016;49.928;9.372;2023-06-22T09:44:55;8.27;;;7.50;;
15831;SDS011;8016;49.928;9.372;2023-06-22T09:47:21;9.13;;;8.32;;
15831;SDS011;8016;49.928;9.372;2023-06-22T09:49:47;9.73;;;7.70;;
15831;SDS011;8016;49.928;9.372;2023-06-22T09:52:13;8.95;;;8.25;;
15831;SDS011;8016;49.928;9.372;2023-06-22T09:54:39;10.10;;;7.97;;
15831;SDS011;8016;49.928;9.372;2023-06-22T09:57:05;9.25;;;8.45;;
15831;SDS011;8016;49.928;9.372;2023-06-22T09:59:31;8.82;;;7.90;;
15831;SDS011;8016;49.928;9.372;2023-06-22T10:01:57;12.02;;;7.78;;
15831;SDS011;8016;49.928;9.372;2023-06-22T10:04:23;9.63;;;8.93;;
15831;SDS011;8016;49.928;9.372;2023-06-22T10:06:50;8.30;;;7.60;;
15831;SDS011;8016;49.928;9.372;2023-06-22T10:09:16;10.70;;;8.00;;
15831;SDS011;8016;49.928;9.372;2023-06-22T10:11:42;8.82;;;8.13;;
15831;SDS011;8016;49.928;9.372;2023-06-22T10:14:08;9.05;;;8.07;;
15831;SDS011;8016;49.928;9.372;2023-06-22T10:16:35;8.82;;;8.02;;
15831;SDS011;8016;49.928;9.372;2023-06-22T10:19:01;10.68;;;7.88;;
15831;SDS011;8016;49.928;9.372;2023-06-22T10:21:27;9.20;;;8.32;;
15831;SDS011;8016;49.928;9.372;2023-06-22T10:23:54;8.55;;;7.72;;
15831;SDS011;8016;49.928;9.372;2023-06-22T10:26:20;14.35;;;7.82;;
15831;SDS011;8016;49.928;9.372;2023-06-22T10:28:46;9.38;;;7.57;;
15831;SDS011;8016;49.928;9.372;2023-06-22T10:31:12;8.88;;;7.32;;
15831;SDS011;8016;49.928;9.372;2023-06-22T10:33:39;8.77;;;7.95;;
15831;SDS011;8016;49.928;9.372;2023-06-22T10:36:06;8.93;;;7.95;;
15831;SDS011;8016;49.928;9.372;2023-06-22T10:38:32;10.32;;;8.55;;
15831;SDS011;8016;49.928;9.372;2023-06-22T10:40:58;8.20;;;7.50;;
15831;SDS011;8016;49.928;9.372;2023-06-22T10:43:24;9.55;;;8.73;;
15831;SDS011;8016;49.928;9.372;2023-06-22T10:45:50;8.70;;;7.78;;
15831;SDS011;8016;49.928;9.372;2023-06-22T10:48:16;9.52;;;7.88;;
15831;SDS011;8016;49.928;9.372;2023-06-22T10:50:42;8.43;;;7.47;;
15831;SDS011;8016;49.928;9.372;2023-06-22T10:53:08;8.10;;;7.30;;
15831;SDS011;8016;49.928;9.372;2023-06-22T10:55:34;9.20;;;8.30;;
15831;SDS011;8016;49.928;9.372;2023-06-22T10:58:00;9.10;;;8.20;;
15831;SDS011;8016;49.928;9.372;2023-06-22T11:00:26;9.10;;;7.90;;
15831;SDS011;8016;49.928;9.372;2023-06-22T11:02:52;8.93;;;7.82;;
15831;SDS011;8016;49.928;9.372;2023-06-22T11:05:18;9.40;;;7.05;;
15831;SDS011;8016;49.928;9.372;2023-06-22T11:07:44;10.80;;;7.22;;
15831;SDS011;8016;49.928;9.372;2023-06-22T11:10:10;7.68;;;6.80;;
15831;SDS011;8016;49.928;9.372;2023-06-22T11:12:36;7.90;;;7.10;;
15831;SDS011;8016;49.928;9.372;2023-06-22T11:15:02;8.63;;;7.68;;
15831;SDS011;8016;49.928;9.372;2023-06-22T11:17:28;7.90;;;7.28;;
15831;SDS011;8016;49.928;9.372;2023-06-22T11:19:54;9.45;;;8.02;;
15831;SDS011;8016;49.928;9.372;2023-06-22T11:22:20;11.45;;;7.43;;
15831;SDS011;8016;49.928;9.372;2023-06-22T11:24:46;8.60;;;7.50;;
15831;SDS011;8016;49.928;9.372;2023-06-22T11:27:12;9.18;;;7.63;;
15831;SDS011;8016;49.928;9.372;2023-06-22T11:29:38;8.13;;;7.20;;
15831;SDS011;8016;49.928;9.372;2023-06-22T11:32:05;8.30;;;7.50;;
15831;SDS011;8016;49.928;9.372;2023-06-22T11:34:32;10.60;;;7.75;;
15831;SDS011;8016;49.928;9.372;2023-06-22T11:36:58;8.68;;;7.50;;
15831;SDS011;8016;49.928;9.372;2023-06-22T11:39:23;7.90;;;6.85;;
15831;SDS011;8016;49.928;9.372;2023-06-22T11:41:49;8.70;;;6.80;;
15831;SDS011;8016;49.928;9.372;2023-06-22T11:44:15;9.90;;;6.88;;
15831;SDS011;8016;49.928;9.372;2023-06-22T11:46:41;10.23;;;6.78;;
15831;SDS011;8016;49.928;9.372;2023-06-22T11:49:07;8.07;;;7.10;;
15831;SDS011;8016;49.928;9.372;2023-06-22T11:51:33;8.00;;;7.05;;
15831;SDS011;8016;49.928;9.372;2023-06-22T11:53:59;8.88;;;7.13;;
15831;SDS011;8016;49.928;9.372;2023-06-22T11:56:26;9.40;;;6.65;;
15831;SDS011;8016;49.928;9.372;2023-06-22T11:58:52;8.27;;;6.65;;
15831;SDS011;8016;49.928;9.372;2023-06-22T12:01:19;12.55;;;6.88;;
15831;SDS011;8016;49.928;9.372;2023-06-22T12:03:45;7.97;;;7.13;;
15831;SDS011;8016;49.928;9.372;2023-06-22T12:06:13;7.50;;;6.78;;
15831;SDS011;8016;49.928;9.372;2023-06-22T12:08:39;11.95;;;6.75;;
15831;SDS011;8016;49.928;9.372;2023-06-22T12:11:05;7.97;;;7.18;;
15831;SDS011;8016;49.928;9.372;2023-06-22T12:13:31;9.95;;;7.03;;
15831;SDS011;8016;49.928;9.372;2023-06-22T12:15:57;8.93;;;7.15;;
15831;SDS011;8016;49.928;9.372;2023-06-22T12:18:22;7.03;;;6.05;;
15831;SDS011;8016;49.928;9.372;2023-06-22T12:20:49;7.75;;;5.68;;
15831;SDS011;8016;49.928;9.372;2023-06-22T12:23:15;7.20;;;6.53;;
15831;SDS011;8016;49.928;9.372;2023-06-22T12:25:41;7.40;;;6.03;;
15831;SDS011;8016;49.928;9.372;2023-06-22T12:28:07;9.88;;;6.35;;
15831;SDS011;8016;49.928;9.372;2023-06-22T12:30:33;11.23;;;6.93;;
15831;SDS011;8016;49.928;9.372;2023-06-22T12:32:59;11.00;;;6.13;;
15831;SDS011;8016;49.928;9.372;2023-06-22T12:35:25;8.52;;;5.78;;
15831;SDS011;8016;49.928;9.372;2023-06-22T12:37:51;8.32;;;5.75;;
15831;SDS011;8016;49.928;9.372;2023-06-22T12:40:17;7.40;;;5.63;;
15831;SDS011;8016;49.928;9.372;2023-06-22T12:42:44;6.93;;;5.60;;
15831;SDS011;8016;49.928;9.372;2023-06-22T12:45:10;7.60;;;5.40;;
15831;SDS011;8016;49.928;9.372;2023-06-22T12:47:36;7.50;;;5.60;;
15831;SDS011;8016;49.928;9.372;2023-06-22T12:50:02;6.82;;;6.13;;
15831;SDS011;8016;49.928;9.372;2023-06-22T12:52:29;9.63;;;5.82;;
15831;SDS011;8016;49.928;9.372;2023-06-22T12:54:57;8.27;;;5.63;;
15831;SDS011;8016;49.928;9.372;2023-06-22T12:57:23;8.63;;;5.68;;
15831;SDS011;8016;49.928;9.372;2023-06-22T12:59:49;8.02;;;5.55;;
15831;SDS011;8016;49.928;9.372;2023-06-22T13:02:15;10.20;;;5.88;;
15831;SDS011;8016;49.928;9.372;2023-06-22T13:04:41;9.63;;;6.10;;
15831;SDS011;8016;49.928;9.372;2023-06-22T13:07:08;7.13;;;5.75;;
15831;SDS011;8016;49.928;9.372;2023-06-22T13:09:34;8.45;;;5.53;;
15831;SDS011;8016;49.928;9.372;2023-06-22T13:12:01;7.55;;;5.80;;
15831;SDS011;8016;49.928;9.372;2023-06-22T13:14:27;8.52;;;5.85;;
15831;SDS011;8016;49.928;9.372;2023-06-22T13:16:53;10.18;;;5.68;;
15831;SDS011;8016;49.928;9.372;2023-06-22T13:19:19;9.32;;;5.95;;
15831;SDS011;8016;49.928;9.372;2023-06-22T13:21:45;9.07;;;6.25;;
15831;SDS011;8016;49.928;9.372;2023-06-22T13:24:11;8.68;;;5.35;;
15831;SDS011;8016;49.928;9.372;2023-06-22T13:26:37;9.57;;;5.43;;
15831;SDS011;8016;49.928;9.372;2023-06-22T13:29:04;10.63;;;5.78;;
15831;SDS011;8016;49.928;9.372;2023-06-22T13:31:30;7.35;;;5.97;;
15831;SDS011;8016;49.928;9.372;2023-06-22T13:33:56;7.38;;;6.30;;
15831;SDS011;8016;49.928;9.372;2023-06-22T13:36:21;7.25;;;5.80;;
15831;SDS011;8016;49.928;9.372;2023-06-22T13:38:48;8.20;;;5.47;;
15831;SDS011;8016;49.928;9.372;2023-06-22T13:41:14;8.05;;;5.40;;
15831;SDS011;8016;49.928;9.372;2023-06-22T13:43:40;8.35;;;6.03;;
15831;SDS011;8016;49.928;9.372;2023-06-22T13:46:06;8.73;;;6.13;;
15831;SDS011;8016;49.928;9.372;2023-06-22T13:48:32;10.20;;;6.05;;
15831;SDS011;8016;49.928;9.372;2023-06-22T13:50:58;6.60;;;5.60;;
15831;SDS011;8016;49.928;9.372;2023-06-22T13:53:24;8.95;;;5.93;;
15831;SDS011;8016;49.928;9.372;2023-06-22T13:55:51;7.50;;;5.88;;
15831;SDS011;8016;49.928;9.372;2023-06-22T13:58:17;9.38;;;6.13;;
15831;SDS011;8016;49.928;9.372;2023-06-22T14:00:44;7.95;;;5.75;;
15831;SDS011;8016;49.928;9.372;2023-06-22T14:03:10;9.30;;;6.70;;
15831;SDS011;8016;49.928;9.372;2023-06-22T14:05:36;6.32;;;5.43;;
15831;SDS011;8016;49.928;9.372;2023-06-22T14:08:02;9.80;;;5.47;;
15831;SDS011;8016;49.928;9.372;2023-06-22T14:10:28;10.57;;;5.60;;
15831;SDS011;8016;49.928;9.372;2023-06-22T14:12:54;8.85;;;5.25;;
15831;SDS011;8016;49.928;9.372;2023-06-22T14:15:20;9.57;;;5.28;;
15831;SDS011;8016;49.928;9.372;2023-06-22T14:17:46;17.65;;;6.10;;
15831;SDS011;8016;49.928;9.372;2023-06-22T14:20:12;7.47;;;5.20;;
15831;SDS011;8016;49.928;9.372;2023-06-22T14:22:38;8.82;;;5.28;;
15831;SDS011;8016;49.928;9.372;2023-06-22T14:25:05;9.10;;;5.38;;
15831;SDS011;8016;49.928;9.372;2023-06-22T14:27:31;9.35;;;5.50;;
15831;SDS011;8016;49.928;9.372;2023-06-22T14:29:57;10.10;;;5.40;;
15831;SDS011;8016;49.928;9.372;2023-06-22T14:32:23;8.55;;;5.20;;
15831;SDS011;8016;49.928;9.372;2023-06-22T14:34:50;9.75;;;5.30;;
15831;SDS011;8016;49.928;9.372;2023-06-22T14:37:16;8.43;;;5.18;;
15831;SDS011;8016;49.928;9.372;2023-06-22T14:39:42;10.73;;;5.50;;
15831;SDS011;8016;49.928;9.372;2023-06-22T14:42:08;7.80;;;5.03;;
15831;SDS011;8016;49.928;9.372;2023-06-22T14:44:34;8.88;;;5.70;;
15831;SDS011;8016;49.928;9.372;2023-06-22T14:47:00;8.95;;;5.35;;
15831;SDS011;8016;49.928;9.372;2023-06-22T14:49:26;7.90;;;5.32;;